sensor_id;sensor_type;location;lat;lon;timestamp;P1;durP1;ratioP1;P2;durP2;ratioP2
21014;SDS011;19207;-23.482;-46.500;2023-04-01T00:01:29;40.35;;;21.10;;
21014;SDS011;19207;-23.482;-46.500;2023-04-01T00:04:16;56.53;;;24.70;;
21014;SDS011;19207;-23.482;-46.500;2023-04-01T00:07:02;65.35;;;26.27;;
21014;SDS011;19207;-23.482;-46.500;2023-04-01T00:09:49;54.28;;;24.50;;
21014;SDS011;19207;-23.482;-46.500;2023-04-01T00:12:36;56.88;;;26.77;;
21014;SDS011;19207;-23.482;-46.500;2023-04-01T00:15:25;79.93;;;34.15;;
21014;SDS011;19207;-23.482;-46.500;2023-04-01T00:18:11;110.43;;;46.70;;
21014;SDS011;19207;-23.482;-46.500;2023-04-01T00:20:58;101.40;;;45.83;;
21014;SDS011;19207;-23.482;-46.500;2023-04-01T00:23:46;146.87;;;57.25;;
21014;SDS011;19207;-23.482;-46.500;2023-04-01T00:26:34;123.75;;;50.85;;
21014;SDS011;19207;-23.482;-46.500;2023-04-01T00:29:21;132.05;;;51.55;;
21014;SDS011;19207;-23.482;-46.500;2023-04-01T00:32:10;99.55;;;47.78;;
21014;SDS011;19207;-23.482;-46.500;2023-04-01T00:34:57;102.05;;;47.42;;
21014;SDS011;19207;-23.482;-46.500;2023-04-01T00:37:51;89.78;;;45.67;;
21014;SDS011;19207;-23.482;-46.500;2023-04-01T00:40:43;118.70;;;55.53;;
21014;SDS011;19207;-23.482;-46.500;2023-04-01T00:43:33;115.18;;;49.67;;
21014;SDS011;19207;-23.482;-46.500;2023-04-01T00:46:22;92.15;;;45.70;;
21014;SDS011;19207;-23.482;-46.500;2023-04-01T00:49:08;72.07;;;32.20;;
21014;SDS011;19207;-23.482;-46.500;2023-04-01T00:51:57;61.25;;;28.87;;
21014;SDS011;19207;-23.482;-46.500;2023-04-01T00:54:47;46.25;;;24.27;;
21014;SDS011;19207;-23.482;-46.500;2023-04-01T00:57:35;63.42;;;28.42;;
21014;SDS011;19207;-23.482;-46.500;2023-04-01T01:00:23;58.90;;;24.27;;
21014;SDS011;19207;-23.482;-46.500;2023-04-01T01:03:10;55.05;;;25.62;;
21014;SDS011;19207;-23.482;-46.500;2023-04-01T01:11:58;69.62;;;30.37;;
21014;SDS011;19207;-23.482;-46.500;2023-04-01T01:15:03;87.47;;;35.35;;
21014;SDS011;19207;-23.482;-46.500;2023-04-01T01:35:38;60.75;;;27.65;;
21014;SDS011;19207;-23.482;-46.500;2023-04-01T01:38:28;52.17;;;25.33;;
21014;SDS011;19207;-23.482;-46.500;2023-04-01T01:41:17;61.15;;;27.13;;
21014;SDS011;19207;-23.482;-46.500;2023-04-01T01:44:06;49.42;;;25.27;;
21014;SDS011;19207;-23.482;-46.500;2023-04-01T01:46:53;52.62;;;24.30;;
21014;SDS011;19207;-23.482;-46.500;2023-04-01T01:49:42;43.45;;;21.90;;
21014;SDS011;19207;-23.482;-46.500;2023-04-01T01:52:30;40.78;;;21.70;;
21014;SDS011;19207;-23.482;-46.500;2023-04-01T01:55:31;44.75;;;20.52;;
21014;SDS011;19207;-23.482;-46.500;2023-04-01T01:58:23;47.83;;;20.58;;
21014;SDS011;19207;-23.482;-46.500;2023-04-01T02:01:13;44.10;;;21.02;;
21014;SDS011;19207;-23.482;-46.500;2023-04-01T02:04:00;47.58;;;19.60;;
21014;SDS011;19207;-23.482;-46.500;2023-04-01T02:06:56;41.65;;;19.75;;
21014;SDS011;19207;-23.482;-46.500;2023-04-01T02:09:45;35.35;;;18.52;;
21014;SDS011;19207;-23.482;-46.500;2023-04-01T02:12:33;42.53;;;20.12;;
21014;SDS011;19207;-23.482;-46.500;2023-04-01T02:15:21;42.15;;;19.67;;
21014;SDS011;19207;-23.482;-46.500;2023-04-01T02:18:08;37.10;;;19.05;;
21014;SDS011;19207;-23.482;-46.500;2023-04-01T02:20:58;39.63;;;20.48;;
21014;SDS011;19207;-23.482;-46.500;2023-04-01T02:23:46;44.35;;;21.62;;
21014;SDS011;19207;-23.482;-46.500;2023-04-01T02:26:33;42.92;;;20.27;;
21014;SDS011;19207;-23.482;-46.500;2023-04-01T02:29:22;41.45;;;20.98;;
21014;SDS011;19207;-23.482;-46.500;2023-04-01T02:32:11;43.65;;;20.58;;
21014;SDS011;19207;-23.482;-46.500;2023-04-01T02:34:59;47.88;;;20.77;;
21014;SDS011;19207;-23.482;-46.500;2023-04-01T02:37:50;45.45;;;21.58;;
21014;SDS011;19207;-23.482;-46.500;2023-04-01T02:40:42;42.85;;;20.20;;
21014;SDS011;19207;-23.482;-46.500;2023-04-01T02:43:29;52.92;;;21.37;;
21014;SDS011;19207;-23.482;-46.500;2023-04-01T02:46:16;46.15;;;21.92;;
21014;SDS011;19207;-23.482;-46.500;2023-04-01T02:49:03;40.88;;;20.95;;
21014;SDS011;19207;-23.482;-46.500;2023-04-01T02:51:50;49.42;;;23.00;;
21014;SDS011;19207;-23.482;-46.500;2023-04-01T02:54:37;49.00;;;23.38;;
21014;SDS011;19207;-23.482;-46.500;2023-04-01T02:57:24;49.42;;;23.60;;
21014;SDS011;19207;-23.482;-46.500;2023-04-01T03:00:12;50.10;;;23.77;;
21014;SDS011;19207;-23.482;-46.500;2023-04-01T03:03:00;41.72;;;22.25;;
21014;SDS011;19207;-23.482;-46.500;2023-04-01T03:05:48;56.45;;;23.52;;
21014;SDS011;19207;-23.482;-46.500;2023-04-01T03:08:35;61.40;;;31.70;;
21014;SDS011;19207;-23.482;-46.500;2023-04-01T03:11:22;58.15;;;26.52;;
21014;SDS011;19207;-23.482;-46.500;2023-04-01T03:14:09;47.78;;;25.88;;
21014;SDS011;19207;-23.482;-46.500;2023-04-01T03:16:59;61.03;;;27.17;;
21014;SDS011;19207;-23.482;-46.500;2023-04-01T03:19:45;55.00;;;25.27;;
21014;SDS011;19207;-23.482;-46.500;2023-04-01T03:22:34;54.60;;;25.73;;
21014;SDS011;19207;-23.482;-46.500;2023-04-01T03:25:22;53.92;;;25.42;;
21014;SDS011;19207;-23.482;-46.500;2023-04-01T03:28:09;65.00;;;27.23;;
21014;SDS011;19207;-23.482;-46.500;2023-04-01T03:30:57;59.25;;;28.60;;
21014;SDS011;19207;-23.482;-46.500;2023-04-01T03:33:45;81.65;;;35.67;;
21014;SDS011;19207;-23.482;-46.500;2023-04-01T03:36:33;95.25;;;35.47;;
21014;SDS011;19207;-23.482;-46.500;2023-04-01T03:39:20;73.28;;;33.13;;
21014;SDS011;19207;-23.482;-46.500;2023-04-01T03:42:07;89.28;;;34.15;;
21014;SDS011;19207;-23.482;-46.500;2023-04-01T03:44:54;83.95;;;34.08;;
21014;SDS011;19207;-23.482;-46.500;2023-04-01T03:47:41;118.75;;;43.80;;
21014;SDS011;19207;-23.482;-46.500;2023-04-01T03:50:28;132.23;;;43.92;;
21014;SDS011;19207;-23.482;-46.500;2023-04-01T03:53:15;143.70;;;45.63;;
21014;SDS011;19207;-23.482;-46.500;2023-04-01T03:56:05;118.37;;;43.38;;
21014;SDS011;19207;-23.482;-46.500;2023-04-01T03:58:52;109.47;;;40.72;;
21014;SDS011;19207;-23.482;-46.500;2023-04-01T04:01:39;108.85;;;40.80;;
21014;SDS011;19207;-23.482;-46.500;2023-04-01T04:04:26;90.43;;;36.90;;
21014;SDS011;19207;-23.482;-46.500;2023-04-01T04:07:13;87.68;;;37.22;;
21014;SDS011;19207;-23.482;-46.500;2023-04-01T04:10:00;83.80;;;34.25;;
21014;SDS011;19207;-23.482;-46.500;2023-04-01T04:12:48;85.22;;;34.85;;
21014;SDS011;19207;-23.482;-46.500;2023-04-01T04:15:35;92.60;;;34.88;;
21014;SDS011;19207;-23.482;-46.500;2023-04-01T04:18:22;91.97;;;33.28;;
21014;SDS011;19207;-23.482;-46.500;2023-04-01T04:21:13;82.03;;;33.85;;
21014;SDS011;19207;-23.482;-46.500;2023-04-01T04:24:01;82.10;;;34.22;;
21014;SDS011;19207;-23.482;-46.500;2023-04-01T04:26:49;90.12;;;34.80;;
21014;SDS011;19207;-23.482;-46.500;2023-04-01T04:29:36;78.78;;;32.20;;
21014;SDS011;19207;-23.482;-46.500;2023-04-01T04:32:23;79.90;;;32.35;;
21014;SDS011;19207;-23.482;-46.500;2023-04-01T04:35:10;85.32;;;32.97;;
21014;SDS011;19207;-23.482;-46.500;2023-04-01T04:37:58;85.47;;;33.03;;
21014;SDS011;19207;-23.482;-46.500;2023-04-01T04:40:44;90.15;;;35.70;;
21014;SDS011;19207;-23.482;-46.500;2023-04-01T04:43:31;127.78;;;43.47;;
21014;SDS011;19207;-23.482;-46.500;2023-04-01T04:46:24;121.97;;;42.00;;
21014;SDS011;19207;-23.482;-46.500;2023-04-01T04:49:12;88.07;;;36.38;;
21014;SDS011;19207;-23.482;-46.500;2023-04-01T04:52:00;80.03;;;35.10;;
21014;SDS011;19207;-23.482;-46.500;2023-04-01T04:54:48;81.97;;;36.05;;
21014;SDS011;19207;-23.482;-46.500;2023-04-01T04:57:35;99.22;;;37.00;;
21014;SDS011;19207;-23.482;-46.500;2023-04-01T05:00:22;89.60;;;35.65;;
21014;SDS011;19207;-23.482;-46.500;2023-04-01T05:03:10;111.40;;;37.67;;
21014;SDS011;19207;-23.482;-46.500;2023-04-01T05:05:58;95.93;;;37.42;;
21014;SDS011;19207;-23.482;-46.500;2023-04-01T05:08:46;91.18;;;35.50;;
21014;SDS011;19207;-23.482;-46.500;2023-04-01T05:11:34;106.43;;;36.30;;
21014;SDS011;19207;-23.482;-46.500;2023-04-01T05:14:21;92.28;;;36.15;;
21014;SDS011;19207;-23.482;-46.500;2023-04-01T05:17:11;95.30;;;35.85;;
21014;SDS011;19207;-23.482;-46.500;2023-04-01T05:19:58;97.55;;;36.65;;
21014;SDS011;19207;-23.482;-46.500;2023-04-01T05:22:45;98.22;;;35.70;;
21014;SDS011;19207;-23.482;-46.500;2023-04-01T05:25:33;103.30;;;37.28;;
21014;SDS011;19207;-23.482;-46.500;2023-04-01T05:28:21;88.60;;;34.30;;
21014;SDS011;19207;-23.482;-46.500;2023-04-01T05:31:07;88.90;;;35.40;;
21014;SDS011;19207;-23.482;-46.500;2023-04-01T05:33:54;99.78;;;36.95;;
21014;SDS011;19207;-23.482;-46.500;2023-04-01T05:36:41;100.87;;;36.17;;
21014;SDS011;19207;-23.482;-46.500;2023-04-01T05:39:28;95.28;;;35.70;;
21014;SDS011;19207;-23.482;-46.500;2023-04-01T05:42:15;73.18;;;34.63;;
21014;SDS011;19207;-23.482;-46.500;2023-04-01T05:45:02;86.68;;;34.10;;
21014;SDS011;19207;-23.482;-46.500;2023-04-01T05:47:49;74.57;;;32.58;;
21014;SDS011;19207;-23.482;-46.500;2023-04-01T05:50:36;75.65;;;32.20;;
21014;SDS011;19207;-23.482;-46.500;2023-04-01T05:53:26;101.97;;;33.10;;
21014;SDS011;19207;-23.482;-46.500;2023-04-01T05:56:14;76.97;;;32.33;;
21014;SDS011;19207;-23.482;-46.500;2023-04-01T05:59:03;87.95;;;32.85;;
21014;SDS011;19207;-23.482;-46.500;2023-04-01T06:01:51;81.18;;;33.35;;
21014;SDS011;19207;-23.482;-46.500;2023-04-01T06:04:40;88.35;;;33.90;;
21014;SDS011;19207;-23.482;-46.500;2023-04-01T06:07:27;84.68;;;33.53;;
21014;SDS011;19207;-23.482;-46.500;2023-04-01T06:10:18;89.50;;;35.83;;
21014;SDS011;19207;-23.482;-46.500;2023-04-01T06:13:09;91.45;;;36.63;;
21014;SDS011;19207;-23.482;-46.500;2023-04-01T06:16:07;106.57;;;38.00;;
21014;SDS011;19207;-23.482;-46.500;2023-04-01T06:27:50;93.00;;;40.12;;
21014;SDS011;19207;-23.482;-46.500;2023-04-01T06:30:53;112.32;;;40.55;;
21014;SDS011;19207;-23.482;-46.500;2023-04-01T06:51:11;211.52;;;84.87;;
21014;SDS011;19207;-23.482;-46.500;2023-04-01T06:54:13;177.48;;;79.75;;
21014;SDS011;19207;-23.482;-46.500;2023-04-01T06:57:18;207.77;;;85.12;;
21014;SDS011;19207;-23.482;-46.500;2023-04-01T07:00:24;220.65;;;91.40;;
21014;SDS011;19207;-23.482;-46.500;2023-04-01T07:03:16;242.43;;;94.22;;
21014;SDS011;19207;-23.482;-46.500;2023-04-01T07:06:06;201.88;;;86.80;;
21014;SDS011;19207;-23.482;-46.500;2023-04-01T07:08:57;188.57;;;87.15;;
21014;SDS011;19207;-23.482;-46.500;2023-04-01T07:11:48;179.52;;;83.97;;
21014;SDS011;19207;-23.482;-46.500;2023-04-01T07:14:37;180.98;;;78.57;;
21014;SDS011;19207;-23.482;-46.500;2023-04-01T07:17:26;179.80;;;77.68;;
21014;SDS011;19207;-23.482;-46.500;2023-04-01T07:20:28;178.95;;;73.87;;
21014;SDS011;19207;-23.482;-46.500;2023-04-01T07:23:27;165.07;;;74.15;;
21014;SDS011;19207;-23.482;-46.500;2023-04-01T07:26:17;197.05;;;77.68;;
21014;SDS011;19207;-23.482;-46.500;2023-04-01T07:29:13;195.98;;;79.45;;
21014;SDS011;19207;-23.482;-46.500;2023-04-01T07:35:28;193.77;;;71.00;;
21014;SDS011;19207;-23.482;-46.500;2023-04-01T07:47:11;174.15;;;56.25;;
21014;SDS011;19207;-23.482;-46.500;2023-04-01T07:50:12;164.32;;;55.67;;
21014;SDS011;19207;-23.482;-46.500;2023-04-01T08:01:32;245.35;;;66.07;;
21014;SDS011;19207;-23.482;-46.500;2023-04-01T08:04:27;157.23;;;60.72;;
21014;SDS011;19207;-23.482;-46.500;2023-04-01T08:07:17;277.08;;;65.05;;
21014;SDS011;19207;-23.482;-46.500;2023-04-01T08:21:49;541.17;;;120.43;;
21014;SDS011;19207;-23.482;-46.500;2023-04-01T08:24:44;433.15;;;118.10;;
21014;SDS011;19207;-23.482;-46.500;2023-04-01T08:27:37;481.33;;;119.03;;
21014;SDS011;19207;-23.482;-46.500;2023-04-01T08:30:27;569.05;;;126.22;;
21014;SDS011;19207;-23.482;-46.500;2023-04-01T08:39:13;350.92;;;127.40;;
21014;SDS011;19207;-23.482;-46.500;2023-04-01T08:42:18;358.52;;;127.85;;
21014;SDS011;19207;-23.482;-46.500;2023-04-01T08:59:41;401.73;;;128.50;;
21014;SDS011;19207;-23.482;-46.500;2023-04-01T09:17:01;327.70;;;107.53;;
21014;SDS011;19207;-23.482;-46.500;2023-04-01T09:50:04;310.05;;;125.10;;
21014;SDS011;19207;-23.482;-46.500;2023-04-01T09:53:06;282.55;;;121.70;;
21014;SDS011;19207;-23.482;-46.500;2023-04-01T10:17:08;214.63;;;101.00;;
21014;SDS011;19207;-23.482;-46.500;2023-04-01T10:38:11;133.75;;;59.90;;
21014;SDS011;19207;-23.482;-46.500;2023-04-01T10:50:11;96.43;;;46.00;;
21014;SDS011;19207;-23.482;-46.500;2023-04-01T11:20:34;42.33;;;24.15;;
21014;SDS011;19207;-23.482;-46.500;2023-04-01T11:44:18;64.62;;;33.75;;
21014;SDS011;19207;-23.482;-46.500;2023-04-01T11:50:15;50.03;;;26.10;;
21014;SDS011;19207;-23.482;-46.500;2023-04-01T11:56:07;50.67;;;27.62;;
21014;SDS011;19207;-23.482;-46.500;2023-04-01T12:07:47;39.83;;;23.27;;
21014;SDS011;19207;-23.482;-46.500;2023-04-01T12:37:10;43.22;;;21.05;;
21014;SDS011;19207;-23.482;-46.500;2023-04-01T12:43:17;37.47;;;22.17;;
21014;SDS011;19207;-23.482;-46.500;2023-04-01T12:46:13;36.63;;;19.40;;
21014;SDS011;19207;-23.482;-46.500;2023-04-01T12:54:50;36.15;;;19.15;;
21014;SDS011;19207;-23.482;-46.500;2023-04-01T13:09:55;33.72;;;19.98;;
21014;SDS011;19207;-23.482;-46.500;2023-04-01T13:21:45;30.23;;;16.02;;
21014;SDS011;19207;-23.482;-46.500;2023-04-01T13:27:30;25.60;;;14.07;;
21014;SDS011;19207;-23.482;-46.500;2023-04-01T13:33:27;27.05;;;13.07;;
21014;SDS011;19207;-23.482;-46.500;2023-04-01T13:36:27;26.15;;;13.32;;
21014;SDS011;19207;-23.482;-46.500;2023-04-01T13:49:04;18.25;;;9.98;;
21014;SDS011;19207;-23.482;-46.500;2023-04-01T13:57:52;21.73;;;13.80;;
21014;SDS011;19207;-23.482;-46.500;2023-04-01T14:50:54;21.27;;;13.77;;
21014;SDS011;19207;-23.482;-46.500;2023-04-01T14:53:43;20.30;;;12.77;;
21014;SDS011;19207;-23.482;-46.500;2023-04-01T14:59:28;29.10;;;12.68;;
21014;SDS011;19207;-23.482;-46.500;2023-04-01T15:02:22;17.50;;;11.63;;
21014;SDS011;19207;-23.482;-46.500;2023-04-01T15:05:23;17.85;;;10.52;;
21014;SDS011;19207;-23.482;-46.500;2023-04-01T15:13:58;14.07;;;9.45;;
21014;SDS011;19207;-23.482;-46.500;2023-04-01T15:19:39;12.50;;;8.82;;
21014;SDS011;19207;-23.482;-46.500;2023-04-01T15:40:22;6.75;;;6.05;;
21014;SDS011;19207;-23.482;-46.500;2023-04-01T15:43:13;10.70;;;8.30;;
21014;SDS011;19207;-23.482;-46.500;2023-04-01T15:52:42;11.90;;;8.05;;
21014;SDS011;19207;-23.482;-46.500;2023-04-01T15:58:30;8.68;;;4.70;;
21014;SDS011;19207;-23.482;-46.500;2023-04-01T16:01:32;5.25;;;4.60;;
21014;SDS011;19207;-23.482;-46.500;2023-04-01T16:10:36;4.70;;;4.30;;
21014;SDS011;19207;-23.482;-46.500;2023-04-01T16:22:09;6.00;;;4.55;;
21014;SDS011;19207;-23.482;-46.500;2023-04-01T16:31:25;5.97;;;4.60;;
21014;SDS011;19207;-23.482;-46.500;2023-04-01T16:34:21;6.12;;;4.30;;
21014;SDS011;19207;-23.482;-46.500;2023-04-01T16:40:16;8.68;;;4.90;;
21014;SDS011;19207;-23.482;-46.500;2023-04-01T16:43:11;4.85;;;4.43;;
21014;SDS011;19207;-23.482;-46.500;2023-04-01T16:49:28;5.50;;;4.22;;
21014;SDS011;19207;-23.482;-46.500;2023-04-01T16:52:29;4.87;;;4.37;;
21014;SDS011;19207;-23.482;-46.500;2023-04-01T16:55:18;5.07;;;4.12;;
21014;SDS011;19207;-23.482;-46.500;2023-04-01T16:58:06;5.78;;;4.80;;
21014;SDS011;19207;-23.482;-46.500;2023-04-01T17:01:00;4.85;;;4.32;;
21014;SDS011;19207;-23.482;-46.500;2023-04-01T17:03:51;8.57;;;5.32;;
21014;SDS011;19207;-23.482;-46.500;2023-04-01T17:06:45;4.60;;;4.12;;
21014;SDS011;19207;-23.482;-46.500;2023-04-01T17:18:23;8.63;;;5.50;;
21014;SDS011;19207;-23.482;-46.500;2023-04-01T17:21:15;9.60;;;6.18;;
21014;SDS011;19207;-23.482;-46.500;2023-04-01T17:27:20;13.07;;;6.37;;
21014;SDS011;19207;-23.482;-46.500;2023-04-01T17:36:30;5.25;;;4.53;;
21014;SDS011;19207;-23.482;-46.500;2023-04-01T17:42:09;5.57;;;4.12;;
21014;SDS011;19207;-23.482;-46.500;2023-04-01T17:48:15;7.60;;;4.40;;
21014;SDS011;19207;-23.482;-46.500;2023-04-01T17:54:11;11.20;;;6.90;;
21014;SDS011;19207;-23.482;-46.500;2023-04-01T17:57:09;11.93;;;7.20;;
21014;SDS011;19207;-23.482;-46.500;2023-04-01T18:00:14;14.13;;;7.82;;
21014;SDS011;19207;-23.482;-46.500;2023-04-01T18:09:22;10.35;;;7.35;;
21014;SDS011;19207;-23.482;-46.500;2023-04-01T18:21:10;11.02;;;7.28;;
21014;SDS011;19207;-23.482;-46.500;2023-04-01T18:30:15;10.95;;;6.32;;
21014;SDS011;19207;-23.482;-46.500;2023-04-01T18:33:25;7.60;;;6.70;;
21014;SDS011;19207;-23.482;-46.500;2023-04-01T18:48:03;7.95;;;6.57;;
21014;SDS011;19207;-23.482;-46.500;2023-04-01T18:50:57;15.90;;;7.53;;
21014;SDS011;19207;-23.482;-46.500;2023-04-01T18:53:50;10.65;;;7.90;;
21014;SDS011;19207;-23.482;-46.500;2023-04-01T18:56:41;12.18;;;9.27;;
21014;SDS011;19207;-23.482;-46.500;2023-04-01T18:59:34;14.80;;;8.15;;
21014;SDS011;19207;-23.482;-46.500;2023-04-01T19:05:20;9.60;;;7.03;;
21014;SDS011;19207;-23.482;-46.500;2023-04-01T19:25:57;10.15;;;7.90;;
21014;SDS011;19207;-23.482;-46.500;2023-04-01T19:40:54;9.35;;;6.70;;
21014;SDS011;19207;-23.482;-46.500;2023-04-01T19:43:59;10.73;;;6.32;;
21014;SDS011;19207;-23.482;-46.500;2023-04-01T19:47:12;8.77;;;6.20;;
21014;SDS011;19207;-23.482;-46.500;2023-04-01T19:50:17;6.65;;;5.50;;
21014;SDS011;19207;-23.482;-46.500;2023-04-01T19:53:17;8.23;;;6.20;;
21014;SDS011;19207;-23.482;-46.500;2023-04-01T20:04:54;10.80;;;5.45;;
21014;SDS011;19207;-23.482;-46.500;2023-04-01T20:07:43;7.18;;;5.50;;
21014;SDS011;19207;-23.482;-46.500;2023-04-01T20:13:41;14.75;;;5.62;;
21014;SDS011;19207;-23.482;-46.500;2023-04-01T20:16:46;11.88;;;6.20;;
21014;SDS011;19207;-23.482;-46.500;2023-04-01T20:19:44;9.18;;;5.78;;
21014;SDS011;19207;-23.482;-46.500;2023-04-01T20:36:56;10.05;;;5.65;;
21014;SDS011;19207;-23.482;-46.500;2023-04-01T20:51:53;6.90;;;5.12;;
21014;SDS011;19207;-23.482;-46.500;2023-04-01T20:57:34;11.75;;;5.82;;
21014;SDS011;19207;-23.482;-46.500;2023-04-01T21:21:12;8.25;;;4.75;;
21014;SDS011;19207;-23.482;-46.500;2023-04-01T22:09:07;6.72;;;4.60;;
21014;SDS011;19207;-23.482;-46.500;2023-04-01T22:12:17;6.90;;;4.90;;
21014;SDS011;19207;-23.482;-46.500;2023-04-01T22:18:12;6.47;;;4.50;;
21014;SDS011;19207;-23.482;-46.500;2023-04-01T22:21:14;8.25;;;4.47;;
21014;SDS011;19207;-23.482;-46.500;2023-04-01T22:24:13;7.22;;;4.57;;
21014;SDS011;19207;-23.482;-46.500;2023-04-01T22:33:17;7.18;;;4.30;;
21014;SDS011;19207;-23.482;-46.500;2023-04-01T22:42:21;5.47;;;4.10;;
21014;SDS011;19207;-23.482;-46.500;2023-04-01T22:48:20;5.65;;;4.53;;
21014;SDS011;19207;-23.482;-46.500;2023-04-01T22:56:45;12.27;;;4.72;;
21014;SDS011;19207;-23.482;-46.500;2023-04-01T23:02:39;8.45;;;4.53;;
21014;SDS011;19207;-23.482;-46.500;2023-04-01T23:05:30;8.40;;;4.60;;
21014;SDS011;19207;-23.482;-46.500;2023-04-01T23:20:02;14.02;;;7.05;;
21014;SDS011;19207;-23.482;-46.500;2023-04-01T23:26:23;9.50;;;6.25;;
21014;SDS011;19207;-23.482;-46.500;2023-04-01T23:29:15;11.70;;;5.90;;
21014;SDS011;19207;-23.482;-46.500;2023-04-01T23:32:03;10.27;;;5.12;;
21014;SDS011;19207;-23.482;-46.500;2023-04-01T23:34:51;8.95;;;5.78;;
21014;SDS011;19207;-23.482;-46.500;2023-04-01T23:37:38;7.82;;;5.12;;
21014;SDS011;19207;-23.482;-46.500;2023-04-01T23:40:25;11.30;;;5.22;;
21014;SDS011;19207;-23.482;-46.500;2023-04-01T23:43:19;11.30;;;5.32;;
21014;SDS011;19207;-23.482;-46.500;2023-04-01T23:46:09;11.12;;;5.00;;
21014;SDS011;19207;-23.482;-46.500;2023-04-01T23:48:55;9.80;;;5.10;;
21014;SDS011;19207;-23.482;-46.500;2023-04-01T23:54:52;13.62;;;6.05;;
21014;SDS011;19207;-23.482;-46.500;2023-04-01T23:57:39;17.20;;;6.68;;
